Time;durP1;ratioP1;P1;durP2;ratioP2;P2;SDS_P1;SDS_P2;PMS_P1;PMS_P2;Temp;Humidity;BMP_temperature;BMP_pressure;BME280_temperature;BME280_humidity;BME280_pressure;Samples;Min_cycle;Max_cycle;Signal;HPM_P1;HPM_P2
2021/10/29 00:00:09;;;;;;;381.90;359.50;;;9.10;99.90;;;;;;5045510;28;20189;-80
2021/10/29 00:02:35;;;;;;;394.38;370.05;;;9.10;99.90;;;;;;5045757;28;20233;-80
2021/10/29 00:05:01;;;;;;;369.97;348.23;;;9.20;99.90;;;;;;5046999;28;20231;-80
2021/10/29 00:07:27;;;;;;;416.77;392.80;;;9.20;99.90;;;;;;5047653;28;20526;-79
2021/10/29 00:09:52;;;;;;;411.75;388.58;;;9.30;99.90;;;;;;5047455;28;20161;-79
2021/10/29 00:12:19;;;;;;;348.40;327.60;;;9.30;99.90;;;;;;5045489;28;20170;-80
2021/10/29 00:14:45;;;;;;;435.95;411.33;;;9.30;99.90;;;;;;5045735;28;20550;-80
2021/10/29 00:17:11;;;;;;;398.67;375.73;;;9.30;99.90;;;;;;5044837;28;20172;-80
2021/10/29 00:19:37;;;;;;;382.23;360.40;;;9.20;99.90;;;;;;5047416;28;20212;-80
2021/10/29 00:22:04;;;;;;;375.10;353.45;;;9.20;99.90;;;;;;5047600;28;20580;-80
2021/10/29 00:24:30;;;;;;;397.02;374.65;;;9.20;99.90;;;;;;5047988;28;20195;-80
2021/10/29 00:26:56;;;;;;;393.48;370.95;;;9.20;99.90;;;;;;5046129;28;20272;-80
2021/10/29 00:29:22;;;;;;;381.40;359.27;;;9.20;99.90;;;;;;5045636;28;20185;-80
2021/10/29 00:31:49;;;;;;;392.33;369.93;;;9.10;99.90;;;;;;5043734;28;20442;-80
2021/10/29 00:37:12;;;;;;;376.30;353.60;;;9.10;99.90;;;;;;4858440;26;20228;-84
2021/10/29 00:40:10;;;;;;;383.35;361.02;;;9.10;99.90;;;;;;5038375;28;20551;-84
2021/10/29 00:43:12;;;;;;;374.58;352.63;;;9.00;99.90;;;;;;5029180;28;20188;-84
2021/10/29 00:51:39;;;;;;;391.00;368.85;;;9.00;99.90;;;;;;5034952;28;20165;-84
2021/10/29 00:54:31;;;;;;;393.65;370.85;;;9.00;99.90;;;;;;5033980;28;20176;-84
2021/10/29 00:57:53;;;;;;;409.40;385.52;;;9.10;99.90;;;;;;5037497;28;20220;-84
2021/10/29 01:01:00;;;;;;;405.33;382.23;;;9.10;99.90;;;;;;5037650;28;20177;-83
2021/10/29 01:03:30;;;;;;;409.40;385.98;;;9.10;99.90;;;;;;5038368;28;20514;-84
2021/10/29 01:06:40;;;;;;;413.25;389.85;;;9.10;99.90;;;;;;5039656;28;20549;-83
2021/10/29 01:09:32;;;;;;;368.23;346.92;;;9.10;99.90;;;;;;5038222;28;20239;-83
2021/10/29 01:12:09;;;;;;;396.33;373.70;;;9.10;99.90;;;;;;5037495;28;20169;-84
2021/10/29 01:14:42;;;;;;;412.73;389.23;;;9.10;99.90;;;;;;5039260;28;20145;-83
2021/10/29 01:17:37;;;;;;;380.10;358.25;;;9.10;99.90;;;;;;5036903;28;20596;-84
2021/10/29 01:20:34;;;;;;;367.95;347.20;;;9.00;99.90;;;;;;5039187;28;20224;-84
2021/10/29 01:23:19;;;;;;;360.83;339.88;;;9.00;99.90;;;;;;5032913;28;20184;-84
2021/10/29 01:26:19;;;;;;;370.38;349.30;;;9.10;99.90;;;;;;5026669;28;20232;-84
2021/10/29 01:29:01;;;;;;;395.33;372.65;;;9.10;99.90;;;;;;5036723;28;20278;-84
2021/10/29 01:32:15;;;;;;;368.50;346.50;;;9.00;99.90;;;;;;5037117;28;20165;-84
2021/10/29 01:35:06;;;;;;;;;;;;;;;;;;;;;
2021/10/29 01:37:56;;;;;;;372.45;351.25;;;9.00;99.90;;;;;;5037309;28;20255;-84
2021/10/29 01:44:17;;;;;;;368.27;346.58;;;9.10;99.90;;;;;;5037506;28;20195;-84
2021/10/29 01:46:54;;;;;;;374.85;352.67;;;9.00;99.90;;;;;;5030631;28;20228;-84
2021/10/29 01:49:36;;;;;;;409.33;385.95;;;9.00;99.90;;;;;;5036494;28;20256;-84
2021/10/29 01:52:19;;;;;;;397.15;374.67;;;9.00;99.90;;;;;;5036870;28;20172;-84
2021/10/29 01:55:02;;;;;;;411.13;386.73;;;9.10;99.90;;;;;;5002169;28;20185;-84
2021/10/29 01:57:54;;;;;;;384.15;362.65;;;9.00;99.90;;;;;;5036645;28;20203;-84
2021/10/29 02:00:37;;;;;;;407.90;384.67;;;9.00;99.90;;;;;;5036762;28;20597;-83
2021/10/29 02:03:35;;;;;;;399.17;376.65;;;9.00;99.90;;;;;;5036143;28;20684;-84
2021/10/29 02:06:35;;;;;;;;;;;;;;;;;;;;;
2021/10/29 02:09:29;;;;;;;394.63;372.27;;;9.00;99.90;;;;;;5035968;28;20268;-84
2021/10/29 02:12:08;;;;;;;;;;;;;;;;;;;;;
2021/10/29 02:15:24;;;;;;;;;;;;;;;;;;;;;
2021/10/29 02:22:34;;;;;;;361.10;339.90;;;8.90;99.90;;;;;;5025204;28;20168;-84
2021/10/29 02:25:10;;;;;;;389.42;366.95;;;8.90;99.90;;;;;;5029790;28;20180;-83
2021/10/29 02:28:11;;;;;;;380.80;358.88;;;8.90;99.90;;;;;;5017183;28;20212;-84
2021/10/29 02:31:06;;;;;;;378.90;357.30;;;8.90;99.90;;;;;;5027005;28;20535;-84
2021/10/29 02:33:59;;;;;;;401.52;378.33;;;8.90;99.90;;;;;;5035034;28;20195;-84
2021/10/29 02:36:38;;;;;;;404.63;381.87;;;8.80;99.90;;;;;;4395795;28;18386342;-84
2021/10/29 02:39:28;;;;;;;379.73;357.75;;;8.80;99.90;;;;;;5035798;28;20196;-84
2021/10/29 02:42:04;;;;;;;401.25;378.48;;;8.80;99.90;;;;;;5034111;28;20220;-84
2021/10/29 02:44:55;;;;;;;380.88;358.35;;;8.80;99.90;;;;;;5035954;28;20168;-85
2021/10/29 02:47:46;;;;;;;390.92;368.45;;;8.70;99.90;;;;;;5035678;28;20213;-84
2021/10/29 02:50:33;;;;;;;376.90;355.40;;;8.70;99.90;;;;;;5034791;28;20208;-84
2021/10/29 02:53:35;;;;;;;400.52;377.25;;;8.70;99.90;;;;;;5033736;28;20165;-84
2021/10/29 02:56:36;;;;;;;;;;;;;;;;;;;;;
2021/10/29 02:59:45;;;;;;;;;;;;;;;;;;;;;
2021/10/29 03:02:31;;;;;;;;;;;;;;;;;;;;;
2021/10/29 03:05:41;;;;;;;;;;;;;;;;;;;;;
2021/10/29 03:08:31;;;;;;;387.33;364.83;;;8.70;99.90;;;;;;5033582;28;20691;-83
2021/10/29 03:11:12;;;;;;;378.40;356.60;;;8.60;99.90;;;;;;5036611;28;20169;-84
2021/10/29 03:13:40;;;;;;;389.85;367.52;;;8.70;99.90;;;;;;5037349;28;20152;-84
2021/10/29 03:16:45;;;;;;;373.23;351.88;;;8.70;99.90;;;;;;5034840;28;20224;-83
2021/10/29 03:20:10;;;;;;;;;;;;;;;;;;;;;
2021/10/29 03:26:14;;;;;;;372.40;351.20;;;8.60;99.90;;;;;;5035328;28;20204;-84
2021/10/29 03:28:50;;;;;;;372.92;350.85;;;8.60;99.90;;;;;;5050684;23;20251;-83
2021/10/29 03:31:40;;;;;;;436.90;412.20;;;8.60;99.90;;;;;;5036429;28;20157;-84
2021/10/29 03:34:29;;;;;;;392.27;369.75;;;8.60;99.90;;;;;;5033788;28;20293;-84
2021/10/29 03:36:58;;;;;;;412.38;389.35;;;8.60;99.90;;;;;;5036268;28;20157;-84
2021/10/29 03:39:38;;;;;;;356.60;335.55;;;8.60;99.90;;;;;;5035918;28;20212;-85
2021/10/29 03:42:20;;;;;;;392.98;370.30;;;8.60;99.90;;;;;;5036287;28;20687;-83
2021/10/29 03:45:00;;;;;;;370.83;348.83;;;8.70;99.90;;;;;;5034221;28;20264;-84
2021/10/29 03:47:50;;;;;;;356.60;334.90;;;8.70;99.90;;;;;;5034731;28;20235;-84
2021/10/29 03:50:34;;;;;;;325.08;304.92;;;8.70;99.90;;;;;;5039245;28;20161;-84
2021/10/29 03:56:21;;;;;;;356.33;335.23;;;8.70;99.90;;;;;;5039523;28;20576;-84
2021/10/29 03:59:14;;;;;;;322.20;302.25;;;8.70;99.90;;;;;;5038556;28;20250;-84
2021/10/29 04:01:45;;;;;;;368.23;346.50;;;8.60;99.90;;;;;;5037974;28;20168;-84
2021/10/29 04:04:13;;;;;;;353.48;332.05;;;8.60;99.90;;;;;;5038738;28;20173;-84
2021/10/29 04:07:02;;;;;;;326.13;306.45;;;8.60;99.90;;;;;;5038923;28;20284;-84
2021/10/29 04:10:19;;;;;;;346.30;325.52;;;8.60;99.90;;;;;;5039421;28;20687;-84
2021/10/29 04:12:48;;;;;;;272.67;253.95;;;8.70;99.90;;;;;;5028925;28;20540;-84
2021/10/29 04:15:19;;;;;;;232.85;215.45;;;8.70;99.90;;;;;;5038555;28;20208;-85
2021/10/29 04:17:55;;;;;;;226.95;210.38;;;8.70;99.90;;;;;;5038627;28;20188;-84
2021/10/29 04:20:26;;;;;;;238.13;219.73;;;8.70;99.90;;;;;;5038667;28;20145;-84
2021/10/29 04:23:04;;;;;;;243.88;225.73;;;8.70;99.90;;;;;;5038803;28;20613;-85
2021/10/29 04:25:42;;;;;;;;;;;;;;;;;;;;;
2021/10/29 04:28:14;;;;;;;243.07;225.18;;;8.60;99.90;;;;;;5038830;22;20293;-84
2021/10/29 04:31:20;;;;;;;266.60;248.82;;;8.70;99.90;;;;;;5018098;28;20230;-84
2021/10/29 04:33:50;;;;;;;330.60;309.42;;;8.60;99.90;;;;;;5017240;28;20181;-84
2021/10/29 04:36:42;;;;;;;308.75;288.55;;;8.50;99.90;;;;;;5018588;28;20209;-84
2021/10/29 04:39:24;;;;;;;287.77;268.15;;;8.60;99.90;;;;;;5000370;28;20614;-84
2021/10/29 04:41:57;;;;;;;286.63;267.23;;;8.60;99.90;;;;;;5018080;28;20146;-84
2021/10/29 04:44:36;;;;;;;261.50;243.35;;;8.60;99.90;;;;;;5018223;28;20613;-84
2021/10/29 04:47:12;;;;;;;284.63;265.38;;;8.60;99.90;;;;;;5017393;28;20596;-84
2021/10/29 04:49:47;;;;;;;274.52;255.55;;;8.60;99.90;;;;;;4999297;28;20250;-84
2021/10/29 04:52:18;;;;;;;367.13;344.42;;;8.50;99.90;;;;;;5017652;28;20157;-84
2021/10/29 04:54:57;;;;;;;316.98;296.30;;;8.50;99.90;;;;;;5017543;28;20150;-84
2021/10/29 04:57:26;;;;;;;324.58;304.25;;;8.50;99.90;;;;;;4999787;28;20169;-82
2021/10/29 04:59:58;;;;;;;350.65;328.30;;;8.50;99.90;;;;;;5016894;28;20162;-85
2021/10/29 05:02:27;;;;;;;330.15;309.33;;;8.50;99.90;;;;;;5000089;28;20254;-85
2021/10/29 05:05:18;;;;;;;340.67;318.73;;;8.50;99.90;;;;;;5016875;28;20629;-85
2021/10/29 05:07:58;;;;;;;307.27;286.60;;;8.50;99.90;;;;;;4984651;28;20194;-85
2021/10/29 05:10:24;;;;;;;315.60;294.95;;;8.60;99.90;;;;;;5017232;28;20166;-85
2021/10/29 05:12:56;;;;;;;368.17;345.67;;;8.50;99.90;;;;;;5017310;28;20166;-85
2021/10/29 05:15:34;;;;;;;356.00;334.30;;;8.50;99.90;;;;;;5000178;28;20451;-85
2021/10/29 05:28:09;;;;;;;244.15;226.07;;;8.60;99.90;;;;;;4976227;28;20207;-83
2021/10/29 05:31:18;;;;;;;;;;;;;;;;;;;;;
2021/10/29 05:37:48;;;;;;;327.73;305.52;;;8.50;99.90;;;;;;5006024;28;20189;-83
2021/10/29 05:40:50;;;;;;;292.70;273.52;;;8.40;99.90;;;;;;4984731;28;20204;-84
2021/10/29 05:44:26;;;;;;;;;;;;;;;;;;;;;
2021/10/29 05:47:24;;;;;;;313.45;292.55;;;8.40;99.90;;;;;;4980575;28;20205;-84
2021/10/29 05:54:34;;;;;;;;;;;;;;;;;;;;;
2021/10/29 05:59:24;;;;;;;354.45;332.67;;;8.40;99.90;;;;;;5208128;22;20386;-84
2021/10/29 06:02:22;;;;;;;376.30;353.85;;;8.50;99.90;;;;;;5036120;28;20188;-83
2021/10/29 06:05:38;;;;;;;;;;;;;;;;;;;;;
2021/10/29 06:26:22;;;;;;;387.80;364.38;;;8.50;99.90;;;;;;4900053;29;20216;-84
2021/10/29 06:33:09;;;;;;;326.10;305.55;;;8.50;99.90;;;;;;4842566;29;20183;-85
2021/10/29 06:39:04;;;;;;;375.02;352.08;;;8.50;99.90;;;;;;4771494;26;20235;-82
2021/10/29 06:42:00;;;;;;;368.98;346.75;;;8.50;99.90;;;;;;4927468;28;20211;-81
2021/10/29 06:45:06;;;;;;;389.45;366.77;;;8.50;99.90;;;;;;4971172;28;20175;-80
2021/10/29 07:41:38;;;;;;;370.05;348.48;;;9.10;99.90;;;;;;5040536;28;20276;-82
2021/10/29 07:48:22;;;;;;;372.17;349.67;;;9.20;99.90;;;;;;4978493;28;20829;-81
2021/10/29 07:50:49;;;;;;;403.60;379.90;;;9.30;99.90;;;;;;4977651;28;20191;-82
2021/10/29 07:53:45;;;;;;;350.02;329.52;;;9.40;99.90;;;;;;4964028;28;20171;-82
2021/10/29 08:00:13;;;;;;;367.17;345.52;;;9.40;99.90;;;;;;5037891;28;20193;-82
2021/10/29 08:13:33;;;;;;;;;;;;;;;;;;;;;
2021/10/29 08:19:36;;;;;;;172.63;158.48;;;9.90;99.90;;;;;;4941793;28;20232;-81
2021/10/29 08:22:38;;;;;;;187.13;172.05;;;10.00;99.90;;;;;;4964000;28;20246;-81
2021/10/29 08:25:39;;;;;;;194.20;178.93;;;10.10;99.90;;;;;;5037566;28;20263;-82
2021/10/29 08:28:41;;;;;;;196.45;180.63;;;10.10;99.90;;;;;;5036677;28;20695;-81
2021/10/29 08:31:55;;;;;;;212.93;197.35;;;10.20;99.90;;;;;;5037744;28;20184;-81
2021/10/29 08:33:59;;;;;;;256.10;239.00;;;10.30;99.90;;;;;;5031115;28;20259;-81
2021/10/29 08:37:00;;;;;;;218.65;202.73;;;10.40;99.90;;;;;;5038454;28;20181;-81
2021/10/29 08:39:49;;;;;;;225.50;209.23;;;10.50;99.90;;;;;;4977688;28;20223;-81
2021/10/29 08:46:05;;;;;;;225.30;209.63;;;10.60;99.90;;;;;;5036592;28;20202;-81
2021/10/29 08:49:05;;;;;;;240.82;224.25;;;10.70;99.90;;;;;;5035500;28;20221;-81
2021/10/29 08:52:13;;;;;;;;;;;;;;;;;;;;;
2021/10/29 08:57:50;;;;;;;179.45;164.70;;;11.00;99.90;;;;;;5037931;28;20211;-81
2021/10/29 09:01:11;;;;;;;147.15;133.75;;;11.10;99.90;;;;;;5036649;28;20169;-81
2021/10/29 09:04:00;;;;;;;120.78;108.40;;;11.10;99.90;;;;;;5017821;28;20292;-81
2021/10/29 09:07:10;;;;;;;167.27;153.25;;;11.20;99.90;;;;;;5035684;28;20275;-81
2021/10/29 09:10:21;;;;;;;175.18;161.02;;;11.30;99.90;;;;;;4953648;28;20251;-80
2021/10/29 09:31:36;;;;;;;100.82;81.20;;;11.60;99.90;;;;;;5036359;28;20200;-80
2021/10/29 09:34:50;;;;;;;;;;;;;;;;;;;;;
2021/10/29 09:37:34;;;;;;;;;;;;;;;;;;;;;
2021/10/29 09:40:59;;;;;;;118.88;106.00;;;11.90;99.90;;;;;;5035556;28;20164;-80
2021/10/29 09:43:57;;;;;;;;;;;;;;;;;;;;;
2021/10/29 09:50:05;;;;;;;134.48;121.78;;;12.20;99.90;;;;;;5029590;28;20169;-80
2021/10/29 09:59:26;;;;;;;98.50;74.40;;;12.50;99.90;;;;;;5035304;28;20196;-80
2021/10/29 10:02:21;;;;;;;94.25;59.30;;;12.60;99.90;;;;;;5033755;28;20223;-80
2021/10/29 10:05:05;;;;;;;92.15;45.63;;;12.70;99.90;;;;;;5033737;28;20181;-80
2021/10/29 10:07:41;;;;;;;88.60;36.35;;;12.80;99.90;;;;;;5033886;28;20215;-80
2021/10/29 10:10:25;;;;;;;83.60;28.90;;;12.90;99.90;;;;;;5034887;28;20192;-80
2021/10/29 10:13:30;;;;;;;86.38;37.85;;;12.80;99.90;;;;;;5033290;28;20256;-80
2021/10/29 10:16:29;;;;;;;88.68;40.15;;;12.80;99.90;;;;;;5010155;28;20227;-80
2021/10/29 10:19:08;;;;;;;84.45;32.15;;;13.00;99.90;;;;;;5025361;28;20204;-80
2021/10/29 10:21:48;;;;;;;86.05;39.78;;;13.20;99.90;;;;;;5032217;28;20234;-80
2021/10/29 10:24:44;;;;;;;91.65;51.42;;;13.50;99.90;;;;;;5032974;28;20235;-79
2021/10/29 10:40:18;;;;;;;89.87;56.67;;;14.20;99.90;;;;;;5037193;28;20415;-81
2021/10/29 10:45:31;;;;;;;83.70;42.40;;;14.20;99.90;;;;;;5037427;28;20847;-81
2021/10/29 10:48:16;;;;;;;86.77;42.83;;;14.20;99.90;;;;;;5036112;28;20440;-81
2021/10/29 10:50:57;;;;;;;92.50;55.63;;;14.10;99.90;;;;;;5037407;28;20372;-81
2021/10/29 10:53:46;;;;;;;90.47;50.77;;;14.00;99.90;;;;;;5037330;28;20380;-81
2021/10/29 10:56:39;;;;;;;92.23;59.83;;;14.10;99.90;;;;;;5035232;28;20447;-81
2021/10/29 11:03:22;;;;;;;84.10;41.57;;;14.50;99.90;;;;;;4976499;28;20747;-81
2021/10/29 11:11:53;;;;;;;76.73;21.30;;;15.10;99.90;;;;;;5037302;28;20415;-81
2021/10/29 11:14:57;;;;;;;77.30;21.13;;;15.20;99.90;;;;;;5037671;28;20380;-81
2021/10/29 11:17:46;;;;;;;74.20;21.93;;;15.30;99.90;;;;;;5034951;28;20424;-81
2021/10/29 11:20:47;;;;;;;75.63;23.37;;;15.30;99.90;;;;;;5035825;28;20408;-81
2021/10/29 11:23:28;;;;;;;74.90;20.53;;;15.50;99.90;;;;;;5036827;28;20379;-81
2021/10/29 11:26:43;;;;;;;74.10;16.70;;;15.60;99.90;;;;;;5036659;28;20967;-81
2021/10/29 11:29:11;;;;;;;72.57;18.10;;;15.60;99.90;;;;;;5027368;28;20431;-81
2021/10/29 11:31:49;;;;;;;75.97;22.60;;;15.80;99.90;;;;;;5036742;28;20474;-81
2021/10/29 11:34:16;;;;;;;77.53;16.57;;;15.90;99.90;;;;;;5037032;28;20447;-81
2021/10/29 11:36:46;;;;;;;74.00;20.20;;;16.00;99.40;;;;;;5036525;28;20471;-81
2021/10/29 11:39:14;;;;;;;74.10;23.10;;;16.10;99.10;;;;;;5036899;28;20458;-81
2021/10/29 11:41:42;;;;;;;73.20;20.30;;;16.10;98.20;;;;;;5019413;28;20954;-81
2021/10/29 11:44:15;;;;;;;78.57;29.73;;;16.20;97.70;;;;;;5036624;28;20412;-81
2021/10/29 11:46:43;;;;;;;82.97;44.77;;;16.20;98.30;;;;;;5035929;28;20479;-78
2021/10/29 11:49:12;;;;;;;85.57;49.23;;;16.40;95.50;;;;;;5035135;28;20424;-80
2021/10/29 11:51:39;;;;;;;83.80;45.20;;;16.40;95.70;;;;;;5036544;28;20433;-80
2021/10/29 11:54:15;;;;;;;84.17;45.30;;;16.40;94.20;;;;;;5035892;28;20482;-79
2021/10/29 12:07:18;;;;;;;82.77;38.67;;;16.50;92.70;;;;;;5034569;28;20481;-79
2021/10/29 12:10:10;;;;;;;77.83;33.93;;;16.50;93.70;;;;;;5035675;28;20425;-78
2021/10/29 12:12:40;;;;;;;77.90;26.70;;;16.60;94.90;;;;;;5031010;28;20413;-79
2021/10/29 12:15:13;;;;;;;80.53;42.57;;;16.60;93.50;;;;;;5037487;28;20402;-79
2021/10/29 12:17:54;;;;;;;78.03;31.53;;;16.60;94.20;;;;;;5037799;28;20716;-79
2021/10/29 12:20:31;;;;;;;79.63;36.73;;;16.60;93.80;;;;;;5036018;28;20919;-79
2021/10/29 12:23:04;;;;;;;78.67;32.50;;;16.50;96.90;;;;;;5037203;28;20386;-79
2021/10/29 12:25:41;;;;;;;82.47;45.93;;;16.50;95.60;;;;;;5035711;28;20408;-78
2021/10/29 12:53:14;;;;;;;83.10;45.10;;;16.40;99.10;;;;;;5023509;28;20421;-81
2021/10/29 13:04:12;;;;;;;83.30;46.03;;;16.70;97.80;;;;;;5022814;28;20399;-80
2021/10/29 13:06:49;;;;;;;82.00;40.20;;;16.80;97.20;;;;;;5023086;28;20451;-80
2021/10/29 13:09:19;;;;;;;75.77;24.90;;;16.80;96.50;;;;;;5006030;28;20443;-80
2021/10/29 13:11:59;;;;;;;79.20;35.70;;;16.90;94.50;;;;;;5025687;28;20413;-80
2021/10/29 13:14:38;;;;;;;76.40;29.67;;;17.00;95.10;;;;;;5025599;28;20380;-80
2021/10/29 13:17:07;;;;;;;78.10;30.10;;;17.10;94.80;;;;;;5025676;28;20384;-81
2021/10/29 13:57:53;;;;;;;77.70;29.37;;;16.90;93.40;;;;;;5023695;28;20186;-80
2021/10/29 14:30:12;;;;;;;78.87;36.80;;;16.90;90.20;;;;;;5022356;28;20395;-80
2021/10/29 14:35:28;;;;;;;77.97;34.37;;;16.90;90.80;;;;;;5021869;28;20476;-81
2021/10/29 14:38:01;;;;;;;78.33;35.97;;;16.90;91.50;;;;;;5021840;28;20477;-81
2021/10/29 14:40:31;;;;;;;74.40;25.23;;;16.90;92.50;;;;;;5023550;28;20764;-80
2021/10/29 14:43:12;;;;;;;77.10;29.70;;;16.80;93.30;;;;;;5022103;28;20411;-80
2021/10/29 14:45:49;;;;;;;76.27;29.97;;;16.80;93.10;;;;;;5022041;28;20530;-80
2021/10/29 14:48:32;;;;;;;82.30;40.27;;;16.80;92.80;;;;;;5022708;28;20430;-80
2021/10/29 15:43:16;;;;;;;79.10;32.67;;;16.10;92.80;;;;;;5022955;28;20398;-80
2021/10/29 15:45:45;;;;;;;78.80;31.47;;;16.00;94.60;;;;;;5024715;28;20441;-80
2021/10/29 15:50:36;;;;;;;78.87;31.87;;;15.80;98.60;;;;;;5027472;28;20898;-80
2021/10/29 15:53:04;;;;;;;85.93;56.00;;;15.70;99.90;;;;;;5026682;28;20559;-80
2021/10/29 15:55:48;;;;;;;97.30;80.20;;;15.60;99.90;;;;;;5024095;28;20474;-80
2021/10/29 16:03:53;;;;;;;85.90;58.43;;;15.40;99.90;;;;;;5024705;28;20395;-80
2021/10/29 16:17:25;;;;;;;71.87;15.80;;;15.10;99.90;;;;;;5023678;28;20385;-80
2021/10/29 16:19:51;;;;;;;71.37;15.50;;;15.00;99.90;;;;;;5028003;28;20442;-80
2021/10/29 16:22:23;;;;;;;73.47;21.90;;;15.10;99.90;;;;;;5026685;28;20947;-80
2021/10/29 16:25:14;;;;;;;73.77;21.10;;;15.00;99.90;;;;;;5008752;28;20409;-80
2021/10/29 16:27:58;;;;;;;72.93;16.53;;;15.00;99.90;;;;;;5025791;28;20460;-80
2021/10/29 16:30:25;;;;;;;70.70;14.73;;;15.00;99.90;;;;;;5025770;28;20416;-80
2021/10/29 16:33:05;;;;;;;75.00;19.13;;;15.10;99.90;;;;;;5008424;28;20420;-80
2021/10/29 16:35:34;;;;;;;72.70;16.10;;;15.00;99.90;;;;;;5026318;28;20425;-80
2021/10/29 16:38:01;;;;;;;71.20;14.93;;;15.10;99.90;;;;;;5026283;28;20521;-80
2021/10/29 16:40:30;;;;;;;73.67;13.30;;;15.00;99.90;;;;;;5008129;28;20408;-80
2021/10/29 16:42:56;;;;;;;71.63;16.70;;;15.00;99.90;;;;;;5025813;28;20408;-80
2021/10/29 16:45:22;;;;;;;72.17;15.33;;;14.90;99.90;;;;;;5024091;28;20400;-80
2021/10/29 16:47:48;;;;;;;72.37;18.70;;;14.90;99.90;;;;;;5025816;28;20177;-80
2021/10/29 16:50:16;;;;;;;78.50;20.60;;;14.90;99.90;;;;;;5023678;28;20404;-80
2021/10/29 16:52:42;;;;;;;75.87;18.97;;;14.80;99.90;;;;;;5023265;28;20170;-80
2021/10/29 16:55:09;;;;;;;73.97;22.33;;;14.80;99.90;;;;;;5024511;28;20407;-82
2021/10/29 16:57:36;;;;;;;72.77;17.23;;;14.70;99.90;;;;;;5025619;28;20495;-80
2021/10/29 17:00:04;;;;;;;71.70;15.20;;;14.70;99.90;;;;;;5025917;28;20431;-80
2021/10/29 17:02:30;;;;;;;73.03;16.70;;;14.60;99.90;;;;;;5006252;28;20409;-79
2021/10/29 17:04:56;;;;;;;75.93;20.67;;;14.70;99.90;;;;;;5026053;28;20451;-80
2021/10/29 17:07:22;;;;;;;76.47;21.87;;;14.60;99.90;;;;;;5008304;28;20820;-80
2021/10/29 17:09:49;;;;;;;76.63;16.23;;;14.60;99.90;;;;;;5026070;28;20209;-79
2021/10/29 17:12:16;;;;;;;75.67;22.37;;;14.60;99.90;;;;;;5025437;28;20404;-79
2021/10/29 17:14:42;;;;;;;74.17;19.57;;;14.60;99.90;;;;;;5008289;28;20439;-80
2021/10/29 17:17:07;;;;;;;76.00;20.93;;;14.60;99.90;;;;;;5022660;28;20468;-80
2021/10/29 17:19:33;;;;;;;73.57;19.37;;;14.60;99.90;;;;;;5022148;28;20641;-80
2021/10/29 17:21:59;;;;;;;74.57;21.77;;;14.60;99.90;;;;;;5021927;28;20170;-80
2021/10/29 17:24:25;;;;;;;78.27;21.57;;;14.60;99.90;;;;;;5024563;28;20891;-80
2021/10/29 17:26:51;;;;;;;76.40;20.90;;;14.60;99.90;;;;;;5025671;28;20448;-79
2021/10/29 17:29:17;;;;;;;73.90;20.53;;;14.60;99.90;;;;;;5025814;28;20223;-79
2021/10/29 17:31:43;;;;;;;77.10;27.00;;;14.60;99.90;;;;;;5025959;28;20878;-80
2021/10/29 17:34:11;;;;;;;75.03;24.30;;;14.60;99.90;;;;;;5024743;28;20409;-79
2021/10/29 17:36:37;;;;;;;77.27;26.87;;;14.60;99.90;;;;;;5024834;28;20182;-79
2021/10/29 17:39:04;;;;;;;78.27;30.77;;;14.60;99.90;;;;;;5008325;28;20433;-79
2021/10/29 17:41:30;;;;;;;75.03;20.03;;;14.50;99.90;;;;;;5025575;28;20772;-79
2021/10/29 17:43:55;;;;;;;79.07;30.03;;;14.60;99.90;;;;;;5024822;28;20407;-79
2021/10/29 17:46:21;;;;;;;80.37;31.40;;;14.60;99.90;;;;;;5007083;28;20704;-79
2021/10/29 17:48:47;;;;;;;80.93;29.37;;;14.50;99.90;;;;;;5024971;28;20205;-80
2021/10/29 17:51:12;;;;;;;89.40;38.77;;;14.50;99.90;;;;;;5025407;28;20511;-79
2021/10/29 17:53:38;;;;;;;80.93;33.63;;;14.50;99.90;;;;;;5006943;28;20174;-80
2021/10/29 17:56:05;;;;;;;79.53;26.20;;;14.50;99.90;;;;;;5007198;28;20174;-80
2021/10/29 17:58:31;;;;;;;78.83;28.70;;;14.50;99.90;;;;;;5007732;28;20433;-79
2021/10/29 18:00:57;;;;;;;77.87;27.43;;;14.50;99.90;;;;;;5025488;28;20424;-79
2021/10/29 18:03:26;;;;;;;79.77;30.03;;;14.50;99.90;;;;;;5007708;28;20421;-80
2021/10/29 18:05:52;;;;;;;83.10;34.43;;;14.40;99.90;;;;;;5023788;28;20436;-79
2021/10/29 18:08:34;;;;;;;80.83;37.20;;;14.40;99.90;;;;;;5024493;28;20417;-79
2021/10/29 18:11:07;;;;;;;78.67;31.70;;;14.30;99.90;;;;;;5005292;28;20435;-80
2021/10/29 18:13:45;;;;;;;81.70;36.53;;;14.30;99.90;;;;;;5004773;28;20420;-79
2021/10/29 18:16:14;;;;;;;79.60;34.13;;;14.30;99.90;;;;;;5022964;28;20429;-79
2021/10/29 18:19:06;;;;;;;77.73;31.00;;;14.30;99.90;;;;;;5005980;28;20476;-79
2021/10/29 18:21:33;;;;;;;78.13;25.53;;;14.30;99.90;;;;;;5023646;28;20393;-80
2021/10/29 18:23:59;;;;;;;82.37;35.53;;;14.30;99.90;;;;;;5023093;28;20940;-80
2021/10/29 18:26:26;;;;;;;87.10;52.27;;;14.30;99.90;;;;;;5022205;28;20448;-80
2021/10/29 18:28:57;;;;;;;81.17;37.60;;;14.20;99.90;;;;;;5004381;28;20190;-79
2021/10/29 18:31:27;;;;;;;82.40;39.03;;;14.20;99.90;;;;;;5023336;28;20404;-79
2021/10/29 18:33:53;;;;;;;81.40;37.53;;;14.20;99.90;;;;;;5024996;28;20447;-79
2021/10/29 18:36:40;;;;;;;;;;;;;;;;;;;;;
2021/10/29 18:39:09;;;;;;;80.77;37.37;;;14.20;99.90;;;;;;5036078;28;20427;-80
2021/10/29 18:41:40;;;;;;;82.63;41.07;;;14.20;99.90;;;;;;5036898;28;20479;-79
2021/10/29 18:44:13;;;;;;;86.10;47.20;;;14.20;99.90;;;;;;5037370;28;20391;-79
2021/10/29 18:46:47;;;;;;;79.17;32.90;;;14.10;99.90;;;;;;5037040;28;20490;-79
2021/10/29 18:49:35;;;;;;;81.17;37.17;;;14.10;99.90;;;;;;5036061;28;20431;-79
2021/10/29 18:52:15;;;;;;;81.73;40.07;;;14.20;99.90;;;;;;5036330;28;20458;-79
2021/10/29 18:54:53;;;;;;;83.93;38.57;;;14.20;99.90;;;;;;5036518;28;20453;-79
2021/10/29 18:57:20;;;;;;;81.77;35.87;;;14.20;99.90;;;;;;5035357;28;20444;-79
2021/10/29 19:00:00;;;;;;;82.33;41.23;;;14.10;99.90;;;;;;5034979;28;20543;-79
2021/10/29 19:02:28;;;;;;;88.13;53.20;;;14.10;99.90;;;;;;5036335;28;20387;-79
2021/10/29 19:05:24;;;;;;;85.93;50.57;;;14.10;99.90;;;;;;5036265;28;20400;-80
2021/10/29 19:07:56;;;;;;;80.73;35.17;;;14.10;99.90;;;;;;5035478;28;20518;-79
2021/10/29 19:10:22;;;;;;;88.50;39.73;;;14.10;99.90;;;;;;5036797;28;20405;-79
2021/10/29 19:12:57;;;;;;;81.70;41.20;;;14.10;99.90;;;;;;5036398;28;20403;-79
2021/10/29 19:15:23;;;;;;;80.07;34.33;;;14.10;99.90;;;;;;5036169;28;20165;-80
2021/10/29 19:17:51;;;;;;;92.27;53.17;;;14.10;99.90;;;;;;5036978;28;20424;-79
2021/10/29 19:20:17;;;;;;;87.80;56.10;;;14.10;99.90;;;;;;5038833;28;20495;-79
2021/10/29 19:22:43;;;;;;;104.77;90.83;;;14.10;99.90;;;;;;5040203;28;20952;-80
2021/10/29 19:25:09;;;;;;;90.43;61.60;;;14.00;99.90;;;;;;5039526;28;20536;-79
2021/10/29 19:27:35;;;;;;;94.63;76.03;;;14.00;99.90;;;;;;5040572;28;20486;-79
2021/10/29 19:30:01;;;;;;;103.90;87.20;;;14.00;99.90;;;;;;5040669;28;20434;-79
2021/10/29 19:32:27;;;;;;;99.97;86.83;;;14.00;99.90;;;;;;5040659;28;20407;-79
2021/10/29 19:34:53;;;;;;;94.90;71.67;;;14.00;99.90;;;;;;5041129;28;20408;-79
2021/10/29 19:37:23;;;;;;;94.97;73.43;;;14.00;99.90;;;;;;5040151;28;20815;-79
2021/10/29 19:42:15;;;;;;;96.97;82.97;;;13.90;99.90;;;;;;5040229;28;20418;-79
2021/10/29 19:44:41;;;;;;;111.37;99.97;;;13.90;99.90;;;;;;5039868;28;20200;-79
2021/10/29 19:47:07;;;;;;;102.57;91.37;;;13.90;99.90;;;;;;5039731;28;20451;-79
2021/10/29 19:49:33;;;;;;;105.10;92.77;;;13.90;99.90;;;;;;5038965;28;20427;-79
2021/10/29 19:51:59;;;;;;;101.53;89.30;;;13.80;99.90;;;;;;5040515;28;20400;-79
2021/10/29 19:54:27;;;;;;;103.83;91.67;;;13.80;99.90;;;;;;5040110;28;20966;-79
2021/10/29 19:56:53;;;;;;;110.47;98.90;;;13.80;99.90;;;;;;5040156;28;20461;-80
2021/10/29 19:59:22;;;;;;;99.63;88.70;;;13.80;99.90;;;;;;5038818;28;20436;-79
2021/10/29 20:01:47;;;;;;;98.60;86.47;;;13.80;99.90;;;;;;5039307;28;20406;-79
2021/10/29 20:04:14;;;;;;;93.73;72.17;;;13.80;99.90;;;;;;5039874;28;20498;-79
2021/10/29 20:06:41;;;;;;;100.13;87.50;;;13.80;99.90;;;;;;5039905;28;20185;-79
2021/10/29 20:09:07;;;;;;;92.43;68.87;;;13.80;99.90;;;;;;5039720;28;20428;-79
2021/10/29 20:11:34;;;;;;;95.67;79.57;;;13.80;99.90;;;;;;5039573;28;20413;-79
2021/10/29 20:13:59;;;;;;;94.07;71.33;;;13.80;99.90;;;;;;5039840;28;20399;-79
2021/10/29 20:16:25;;;;;;;94.73;79.63;;;13.80;99.90;;;;;;5039753;28;20423;-79
2021/10/29 20:18:51;;;;;;;90.33;60.77;;;13.80;99.90;;;;;;5039537;28;20189;-79
2021/10/29 20:21:17;;;;;;;93.50;65.07;;;13.80;99.90;;;;;;5039970;28;20542;-79